Time;durP1;ratioP1;P1;durP2;ratioP2;P2;SDS_P1;SDS_P2;PMS_P1;PMS_P2;Temp;Humidity;BMP_temperature;BMP_pressure;BME280_temperature;BME280_humidity;BME280_pressure;Samples;Min_cycle;Max_cycle;Signal;HPM_P1;HPM_P2
2023/09/05 00:01:46;;;;;;;2.40;1.77;;;;;;;22.23;58.17;102134.53;5102375;28;20116;-72
2023/09/05 00:04:13;;;;;;;4.47;2.20;;;;;;;22.21;58.29;102130.09;5117192;28;20024;-72
2023/09/05 00:06:39;;;;;;;2.72;1.98;;;;;;;22.23;57.99;102126.41;5107928;28;20020;-72
2023/09/05 00:09:05;;;;;;;1.90;1.70;;;;;;;22.23;58.10;102127.25;5120263;28;20052;-72
2023/09/05 00:11:31;;;;;;;2.45;1.80;;;;;;;22.19;58.16;102115.88;5112413;28;20032;-72
2023/09/05 00:13:56;;;;;;;2.40;1.75;;;;;;;22.21;57.92;102126.53;5092130;28;20012;-72
2023/09/05 00:16:21;;;;;;;2.08;1.77;;;;;;;22.21;57.88;102118.41;5118460;28;20083;-72
2023/09/05 00:18:47;;;;;;;2.38;1.75;;;;;;;21.95;57.88;102075.91;5110279;28;20020;-73
2023/09/05 00:21:15;;;;;;;3.38;1.70;;;;;;;22.20;58.11;102114.84;5112471;28;20098;-73
2023/09/05 00:23:40;;;;;;;3.58;1.92;;;;;;;22.21;57.76;102121.13;5115724;28;20034;-72
2023/09/05 00:26:05;;;;;;;2.53;2.25;;;;;;;22.20;57.76;102116.72;5109812;28;20020;-72
2023/09/05 00:28:31;;;;;;;2.13;1.85;;;;;;;22.19;57.83;102121.28;5114893;28;20026;-72
2023/09/05 00:30:57;;;;;;;2.33;1.63;;;;;;;22.19;57.87;102117.72;5114591;28;20524;-72
2023/09/05 00:33:22;;;;;;;2.17;1.85;;;;;;;22.04;57.97;102092.22;5109169;28;20058;-72
2023/09/05 00:35:53;;;;;;;1.60;1.50;;;;;;;21.78;57.63;102052.47;5115601;28;20044;-72
2023/09/05 00:38:19;;;;;;;2.13;1.85;;;;;;;22.18;57.64;102114.19;5112474;28;20027;-72
2023/09/05 00:40:44;;;;;;;2.47;2.10;;;;;;;22.05;57.85;102092.06;5107034;28;20022;-72
2023/09/05 00:43:09;;;;;;;2.58;1.83;;;;;;;22.06;57.56;102092.91;5110980;28;20040;-72
2023/09/05 00:45:37;;;;;;;2.40;1.90;;;;;;;22.14;57.81;102110.09;5110986;28;20016;-72
2023/09/05 00:48:07;;;;;;;2.83;2.00;;;;;;;21.99;57.51;102091.84;5107563;28;20092;-72
2023/09/05 00:50:32;;;;;;;3.50;2.60;;;;;;;22.15;57.64;102124.47;5105156;28;20035;-72
2023/09/05 00:52:57;;;;;;;2.15;1.60;;;;;;;22.09;57.51;102107.00;5105781;28;20016;-72
2023/09/05 00:55:23;;;;;;;2.75;1.95;;;;;;;22.03;57.45;102104.06;5109284;28;20028;-72
2023/09/05 00:57:49;;;;;;;2.30;1.80;;;;;;;22.19;57.76;102134.00;5105362;28;20055;-72
2023/09/05 01:00:15;;;;;;;2.63;2.42;;;;;;;22.16;57.36;102121.59;5106715;28;20062;-72
2023/09/05 01:02:41;;;;;;;2.60;1.90;;;;;;;22.18;57.21;102118.75;5107608;28;20146;-72
2023/09/05 01:05:07;;;;;;;2.35;1.70;;;;;;;21.98;57.17;102092.88;5107005;28;20035;-72
2023/09/05 01:07:51;;;;;;;2.45;1.75;;;;;;;22.17;57.29;102119.75;5105743;28;20044;-72
2023/09/05 01:10:46;;;;;;;2.92;1.80;;;;;;;22.18;57.22;102122.31;5104059;28;20432;-72
2023/09/05 01:13:11;;;;;;;2.38;1.98;;;;;;;22.16;57.12;102121.59;5100869;28;20044;-72
2023/09/05 01:15:36;;;;;;;2.88;2.03;;;;;;;22.02;57.08;102102.38;5111949;28;20026;-72
2023/09/05 01:18:02;;;;;;;3.20;2.15;;;;;;;22.08;57.14;102107.13;5109055;28;20051;-72
2023/09/05 01:20:41;;;;;;;2.25;1.90;;;;;;;22.16;57.13;102115.34;5107055;28;20140;-72
2023/09/05 01:23:08;;;;;;;;;;;;;;;22.15;57.35;102117.19;5110088;28;20035;-72
2023/09/05 01:25:34;;;;;;;2.60;1.75;;;;;;;22.15;57.19;102119.91;5115322;28;19908;-72
2023/09/05 01:28:00;;;;;;;2.08;1.83;;;;;;;22.14;57.11;102114.66;5100547;28;20048;-72
2023/09/05 01:30:27;;;;;;;2.38;2.08;;;;;;;22.13;57.02;102112.94;5107917;28;20023;-72
2023/09/05 01:32:52;;;;;;;2.10;1.70;;;;;;;22.13;57.10;102112.94;5111073;28;20088;-72
2023/09/05 01:35:17;;;;;;;2.42;1.88;;;;;;;22.13;56.79;102110.22;5106451;28;20024;-72
2023/09/05 01:37:43;;;;;;;2.03;1.77;;;;;;;22.10;56.72;102103.25;5120854;28;20024;-72
2023/09/05 01:40:08;;;;;;;2.50;1.75;;;;;;;21.96;56.76;102079.47;5112096;28;20046;-72
2023/09/05 01:42:34;;;;;;;2.05;1.77;;;;;;;22.13;56.90;102115.66;5109406;28;20024;-72
2023/09/05 01:44:59;;;;;;;1.85;1.50;;;;;;;22.13;56.77;102115.66;5113847;28;20026;-72
2023/09/05 01:47:24;;;;;;;2.35;1.85;;;;;;;22.13;56.61;102107.53;5111698;28;20028;-71
2023/09/05 01:49:49;;;;;;;3.17;2.28;;;;;;;22.12;56.72;102109.38;5107075;28;20066;-72
2023/09/05 01:52:15;;;;;;;1.90;1.70;;;;;;;22.12;56.56;102103.97;5114036;28;20041;-72
2023/09/05 01:54:40;;;;;;;2.83;1.60;;;;;;;22.11;56.61;102096.81;5110770;28;20047;-71
2023/09/05 01:57:06;;;;;;;2.20;1.70;;;;;;;22.12;56.36;102093.13;5119723;28;20024;-72
2023/09/05 01:59:31;;;;;;;2.60;2.08;;;;;;;22.12;56.74;102092.25;5114641;28;20024;-72
2023/09/05 02:01:56;;;;;;;2.97;1.98;;;;;;;21.88;56.50;102055.09;5109926;28;20027;-72
2023/09/05 02:04:22;;;;;;;2.42;1.88;;;;;;;22.11;56.59;102093.28;5110079;28;20020;-72
2023/09/05 02:06:47;;;;;;;2.05;1.73;;;;;;;22.10;56.54;102097.00;5114874;28;20084;-71
2023/09/05 02:09:12;;;;;;;2.50;2.10;;;;;;;21.99;56.41;102081.88;5106824;28;20072;-72
2023/09/05 02:11:37;;;;;;;1.83;1.63;;;;;;;22.09;56.48;102085.31;5113117;28;20103;-72
2023/09/05 02:14:03;;;;;;;2.38;2.10;;;;;;;22.00;56.41;102070.00;5115191;28;20107;-72
2023/09/05 02:16:33;;;;;;;2.67;1.90;;;;;;;22.09;56.25;102084.44;5105378;28;20106;-72
2023/09/05 02:18:58;;;;;;;2.40;1.80;;;;;;;21.94;56.51;102060.69;5115676;28;20102;-72
2023/09/05 02:21:23;;;;;;;2.38;1.88;;;;;;;22.08;56.16;102088.16;5112266;28;20028;-72
2023/09/05 02:23:49;;;;;;;2.58;1.77;;;;;;;22.07;56.39;102079.19;5104807;28;20042;-72
2023/09/05 02:26:14;;;;;;;2.10;1.65;;;;;;;22.07;56.34;102081.91;5117835;28;20434;-72
2023/09/05 02:28:39;;;;;;;2.20;1.85;;;;;;;22.02;56.25;102072.59;5111038;28;20012;-72
2023/09/05 02:31:08;;;;;;;1.80;1.60;;;;;;;22.07;56.66;102078.34;5110729;28;20494;-72
2023/09/05 02:33:36;;;;;;;2.20;1.95;;;;;;;22.02;56.28;102072.59;5120491;28;20079;-72
2023/09/05 02:36:15;;;;;;;2.15;1.80;;;;;;;22.05;56.46;102077.69;5113087;28;20031;-72
2023/09/05 02:38:40;;;;;;;;;;;;;;;22.05;56.48;102073.13;5117090;28;20026;-71
2023/09/05 02:41:05;;;;;;;2.22;1.70;;;;;;;22.04;56.42;102070.53;5119449;28;19967;-72
2023/09/05 02:43:32;;;;;;;2.25;1.67;;;;;;;22.04;56.35;102075.97;5112343;28;20472;-72
2023/09/05 02:45:57;;;;;;;2.00;1.80;;;;;;;22.02;56.29;102068.00;5116851;28;20031;-72
2023/09/05 02:48:22;;;;;;;2.05;1.65;;;;;;;22.03;56.47;102067.00;5117437;28;20027;-71
2023/09/05 02:50:48;;;;;;;3.53;1.80;;;;;;;21.83;56.59;102031.16;5122474;28;20028;-72
2023/09/05 02:53:13;;;;;;;2.78;1.90;;;;;;;21.88;56.41;102038.84;5117848;28;20570;-72
2023/09/05 02:55:47;;;;;;;2.33;1.70;;;;;;;22.01;56.26;102060.06;5111308;28;20096;-72
2023/09/05 02:58:12;;;;;;;2.20;1.70;;;;;;;22.01;56.21;102062.75;5114856;28;20019;-72
2023/09/05 03:00:37;;;;;;;2.60;2.00;;;;;;;21.84;56.51;102032.88;5106651;28;20396;-72
2023/09/05 03:03:04;;;;;;;2.03;1.80;;;;;;;22.01;56.47;102051.94;5107626;28;20028;-72
2023/09/05 03:05:29;;;;;;;3.05;1.90;;;;;;;22.00;56.42;102053.75;5109591;28;20028;-72
2023/09/05 03:07:55;;;;;;;2.38;1.95;;;;;;;21.99;56.33;102056.66;5106485;28;20040;-72
2023/09/05 03:10:20;;;;;;;2.50;1.83;;;;;;;21.98;56.04;102047.69;5108221;28;20460;-72
2023/09/05 03:12:46;;;;;;;2.35;1.90;;;;;;;21.74;56.33;102009.63;5111643;28;20030;-72
2023/09/05 03:15:18;;;;;;;2.00;1.60;;;;;;;21.94;56.14;102040.88;5109417;28;20836;-72
2023/09/05 03:17:43;;;;;;;2.10;1.90;;;;;;;21.89;55.95;102035.09;5109251;28;20051;-72
2023/09/05 03:20:11;;;;;;;2.03;1.73;;;;;;;21.71;56.17;102005.41;5110753;28;20790;-72
2023/09/05 03:22:37;;;;;;;1.80;1.60;;;;;;;21.82;56.32;102015.09;5110153;28;20059;-72
2023/09/05 03:25:02;;;;;;;3.33;2.25;;;;;;;21.96;55.97;102036.13;5109691;28;20058;-72
2023/09/05 03:27:27;;;;;;;2.10;1.77;;;;;;;21.95;56.25;102043.41;5112748;28;20019;-72
2023/09/05 03:29:53;;;;;;;2.47;1.95;;;;;;;21.95;56.20;102043.41;5110941;28;20020;-72
2023/09/05 03:32:18;;;;;;;2.95;1.90;;;;;;;21.83;56.25;102022.19;5110752;28;20035;-72
2023/09/05 03:34:48;;;;;;;2.95;2.05;;;;;;;21.95;55.99;102042.56;5105338;28;20023;-72
2023/09/05 03:37:14;;;;;;;2.30;1.83;;;;;;;21.83;56.18;102019.50;5112073;28;20106;-72
2023/09/05 03:39:39;;;;;;;2.08;1.85;;;;;;;21.94;56.15;102040.88;5111076;28;20066;-72
2023/09/05 03:42:04;;;;;;;1.67;1.55;;;;;;;21.93;56.07;102034.63;5113228;28;20035;-72
2023/09/05 03:44:30;;;;;;;1.85;1.50;;;;;;;21.88;56.07;102028.84;5120456;28;20443;-72
2023/09/05 03:46:55;;;;;;;1.98;1.60;;;;;;;21.93;56.03;102041.91;5110770;28;20051;-72
2023/09/05 03:49:20;;;;;;;2.08;1.77;;;;;;;21.88;56.17;102033.41;5113874;28;20110;-72
2023/09/05 03:51:45;;;;;;;2.10;1.63;;;;;;;21.92;55.72;102041.06;5111546;28;20083;-72
2023/09/05 03:54:12;;;;;;;1.60;1.50;;;;;;;21.89;55.81;102040.53;5111059;28;20036;-71
2023/09/05 03:56:38;;;;;;;2.58;2.08;;;;;;;21.91;55.71;102043.91;5114774;28;20080;-72
2023/09/05 03:59:03;;;;;;;1.75;1.65;;;;;;;21.91;56.00;102038.50;5114222;28;20062;-72
2023/09/05 04:01:28;;;;;;;2.25;1.90;;;;;;;21.66;56.00;102005.91;5112475;28;20016;-72
2023/09/05 04:03:54;;;;;;;2.53;1.80;;;;;;;21.90;55.87;102047.63;5115095;28;20028;-72
2023/09/05 04:06:19;;;;;;;2.40;1.75;;;;;;;21.90;55.73;102036.81;5108343;28;20067;-72
2023/09/05 04:08:44;;;;;;;2.28;1.80;;;;;;;21.89;56.09;102033.25;5113127;28;20428;-72
2023/09/05 04:11:09;;;;;;;2.10;1.88;;;;;;;21.82;55.71;102025.91;5114601;28;20027;-72
2023/09/05 04:13:35;;;;;;;2.15;1.92;;;;;;;21.89;55.66;102035.09;5110012;27;20197;-72
2023/09/05 04:16:05;;;;;;;2.40;1.90;;;;;;;21.87;55.89;102029.84;5115151;28;20061;-72
2023/09/05 04:18:30;;;;;;;2.00;1.80;;;;;;;21.76;55.95;102011.19;5112517;28;20064;-72
2023/09/05 04:20:57;;;;;;;2.80;1.88;;;;;;;21.87;55.99;102035.25;5107748;28;20039;-72
2023/09/05 04:23:23;;;;;;;2.40;1.70;;;;;;;21.69;55.75;102005.53;5121114;28;20034;-72
2023/09/05 04:26:03;;;;;;;1.60;1.50;;;;;;;21.86;55.89;102036.28;5116521;28;20019;-72
2023/09/05 04:28:29;;;;;;;1.98;1.60;;;;;;;21.86;56.03;102032.72;5114748;28;20044;-72
2023/09/05 04:30:56;;;;;;;2.05;1.80;;;;;;;21.79;55.93;102020.81;5113721;28;20085;-72
2023/09/05 04:33:23;;;;;;;2.45;1.98;;;;;;;21.82;55.81;102034.88;5096865;28;20024;-72
2023/09/05 04:35:49;;;;;;;2.00;1.83;;;;;;;21.85;55.78;102037.28;5114039;28;20030;-72
2023/09/05 04:38:14;;;;;;;2.15;1.75;;;;;;;21.85;55.69;102040.00;5115672;28;20389;-72
2023/09/05 04:40:39;;;;;;;2.17;1.75;;;;;;;21.72;55.88;102009.81;5120553;28;20083;-72
2023/09/05 04:43:05;;;;;;;3.63;1.70;;;;;;;21.83;55.89;102030.31;5117533;28;20055;-72
2023/09/05 04:45:31;;;;;;;2.33;1.90;;;;;;;21.82;55.77;102040.31;5114349;28;20031;-72
2023/09/05 04:47:56;;;;;;;2.88;1.75;;;;;;;21.82;55.59;102037.59;5107185;28;20027;-72
2023/09/05 04:50:21;;;;;;;2.42;1.73;;;;;;;21.82;55.61;102026.78;5116972;28;20023;-72
2023/09/05 04:52:46;;;;;;;2.28;1.90;;;;;;;21.81;55.54;102032.34;5114336;28;20073;-72
2023/09/05 04:55:12;;;;;;;1.90;1.67;;;;;;;21.81;55.86;102035.91;5106485;28;20024;-71
2023/09/05 04:57:37;;;;;;;2.50;2.00;;;;;;;21.81;55.86;102029.66;5119148;28;20023;-72
2023/09/05 05:00:04;;;;;;;2.00;1.80;;;;;;;21.61;55.86;101994.69;5111458;28;20086;-72
2023/09/05 05:02:31;;;;;;;2.25;1.80;;;;;;;21.72;55.78;102028.75;5109075;28;20038;-72
2023/09/05 05:04:56;;;;;;;2.47;1.70;;;;;;;21.51;55.56;101993.94;5115710;28;20024;-71
2023/09/05 05:07:22;;;;;;;1.70;1.60;;;;;;;21.79;55.69;102040.66;5112471;28;20027;-72
2023/09/05 05:09:47;;;;;;;1.83;1.60;;;;;;;21.73;55.67;102027.75;5106792;28;20024;-72
2023/09/05 05:12:13;;;;;;;2.10;1.90;;;;;;;21.67;55.68;102020.28;5102950;28;20036;-72
2023/09/05 05:14:39;;;;;;;1.98;1.80;;;;;;;21.71;55.50;102021.66;5109744;28;20339;-72
2023/09/05 05:17:04;;;;;;;2.40;2.10;;;;;;;21.77;55.39;102026.41;5090346;28;20089;-71
2023/09/05 05:19:30;;;;;;;2.58;1.90;;;;;;;21.63;55.55;102005.34;5105601;28;20047;-72
2023/09/05 05:21:56;;;;;;;1.83;1.65;;;;;;;21.56;55.53;101997.00;5119502;28;20081;-72
2023/09/05 05:24:22;;;;;;;2.17;1.92;;;;;;;21.26;55.40;101938.78;5109651;28;20028;-72
2023/09/05 05:26:48;;;;;;;2.00;1.80;;;;;;;21.30;55.50;101953.69;5106681;28;20024;-72
2023/09/05 05:29:13;;;;;;;2.25;1.67;;;;;;;21.76;55.47;102032.84;5106082;28;20016;-72
2023/09/05 05:31:42;;;;;;;2.67;1.70;;;;;;;21.53;55.61;101997.31;5112211;28;20020;-72
2023/09/05 05:34:07;;;;;;;2.10;1.90;;;;;;;21.46;55.67;101980.06;5107840;28;20034;-72
2023/09/05 05:36:33;;;;;;;2.25;1.80;;;;;;;21.49;55.40;101992.41;5108266;28;20028;-72
2023/09/05 05:38:59;;;;;;;2.22;1.77;;;;;;;21.75;55.39;102035.69;5107529;28;20046;-71
2023/09/05 05:41:26;;;;;;;2.38;1.65;;;;;;;21.73;55.60;102027.75;5107634;28;20083;-72
2023/09/05 05:43:51;;;;;;;2.58;1.67;;;;;;;21.73;55.46;102030.44;5108752;28;20616;-71
2023/09/05 05:46:18;;;;;;;2.20;2.00;;;;;;;21.74;55.39;102032.13;5110183;28;20054;-71
2023/09/05 05:48:44;;;;;;;1.95;1.75;;;;;;;21.68;55.45;102021.97;5108637;28;20020;-72
2023/09/05 05:51:09;;;;;;;3.13;2.08;;;;;;;21.54;55.61;101998.22;5109121;28;20051;-72
2023/09/05 05:53:34;;;;;;;2.28;1.98;;;;;;;21.73;55.64;102035.84;5116225;28;20086;-72
2023/09/05 05:56:00;;;;;;;2.00;1.80;;;;;;;21.73;55.50;102030.44;5107846;28;20024;-72
2023/09/05 05:58:25;;;;;;;1.85;1.65;;;;;;;21.73;55.48;102035.00;5110495;28;20030;-71
2023/09/05 06:00:50;;;;;;;2.30;1.98;;;;;;;21.52;55.21;102000.22;5111098;28;20028;-72
2023/09/05 06:03:19;;;;;;;1.95;1.75;;;;;;;21.54;55.29;102007.16;5106782;28;20048;-72
2023/09/05 06:05:45;;;;;;;;;;;;;;;21.73;55.45;102043.13;5113028;28;20030;-71
2023/09/05 06:08:10;;;;;;;2.45;2.20;;;;;;;21.64;55.47;102029.53;5121043;28;20362;-71
2023/09/05 06:10:36;;;;;;;2.17;1.75;;;;;;;21.71;55.29;102037.91;5108211;28;20107;-72
2023/09/05 06:13:01;;;;;;;2.45;2.20;;;;;;;21.49;55.61;102003.22;5124238;28;20061;-72
2023/09/05 06:15:26;;;;;;;2.75;2.42;;;;;;;21.70;55.61;102038.88;5117076;27;20028;-71
2023/09/05 06:17:52;;;;;;;2.13;1.92;;;;;;;21.42;55.54;101993.03;5109887;28;20026;-72
2023/09/05 06:20:17;;;;;;;2.50;1.90;;;;;;;21.61;55.61;102020.88;5117740;28;20024;-72
2023/09/05 06:22:44;;;;;;;2.13;1.80;;;;;;;21.12;55.35;101950.22;5120272;28;20381;-72
2023/09/05 06:25:10;;;;;;;2.00;1.70;;;;;;;21.70;55.27;102044.28;5115638;28;20030;-72
2023/09/05 06:27:35;;;;;;;2.50;1.70;;;;;;;21.70;55.40;102047.00;5105831;28;20028;-71
2023/09/05 06:30:02;;;;;;;2.50;1.70;;;;;;;21.52;55.48;102016.44;5117436;28;20039;-72
2023/09/05 06:32:27;;;;;;;2.33;2.13;;;;;;;21.56;55.31;102023.22;5115491;28;20100;-72
2023/09/05 06:34:52;;;;;;;2.25;2.00;;;;;;;21.53;55.55;102020.84;5118094;28;20027;-71
2023/09/05 06:37:18;;;;;;;2.10;1.77;;;;;;;21.53;55.45;102024.38;5111869;28;20685;-72
2023/09/05 06:39:43;;;;;;;1.70;1.60;;;;;;;21.59;55.48;102034.59;5116207;28;20024;-71
2023/09/05 06:42:10;;;;;;;1.83;1.73;;;;;;;21.54;55.48;102030.69;5117330;28;20023;-71
2023/09/05 06:44:35;;;;;;;1.92;1.73;;;;;;;21.70;55.29;102042.44;5110044;28;20035;-72
2023/09/05 06:47:00;;;;;;;3.53;2.17;;;;;;;21.69;55.54;102038.03;5119011;28;20035;-72
2023/09/05 06:49:25;;;;;;;2.25;1.70;;;;;;;21.61;55.07;102029.00;5115638;28;20028;-72
2023/09/05 06:51:51;;;;;;;2.42;1.70;;;;;;;21.52;55.35;102013.72;5109186;28;20035;-71
2023/09/05 06:54:16;;;;;;;2.78;2.10;;;;;;;21.67;55.44;102039.22;5121572;28;20028;-72
2023/09/05 06:56:42;;;;;;;2.03;1.83;;;;;;;21.69;55.54;102035.31;5114472;28;20027;-72
2023/09/05 06:59:17;;;;;;;2.65;1.80;;;;;;;21.41;55.43;101985.94;5110403;28;20865;-72
2023/09/05 07:01:46;;;;;;;3.05;2.00;;;;;;;21.70;55.40;102033.47;5118899;28;20069;-72
2023/09/05 07:04:11;;;;;;;;;;;;;;;21.70;55.29;102028.91;5113029;28;20103;-72
2023/09/05 07:06:37;;;;;;;2.67;1.98;;;;;;;21.52;55.43;102009.16;5114051;28;19908;-72
2023/09/05 07:09:03;;;;;;;2.50;1.80;;;;;;;21.62;55.58;102012.63;5117091;28;20134;-72
2023/09/05 07:11:29;;;;;;;1.88;1.67;;;;;;;21.55;55.72;101998.03;5110349;28;20473;-72
2023/09/05 07:13:54;;;;;;;2.70;1.88;;;;;;;21.69;55.54;102023.66;5115028;27;20016;-72
2023/09/05 07:16:19;;;;;;;2.35;1.73;;;;;;;21.62;55.41;102011.75;5117512;28;20016;-71
2023/09/05 07:18:44;;;;;;;1.95;1.50;;;;;;;21.55;55.33;102000.75;5108914;28;20036;-71
2023/09/05 07:21:10;;;;;;;2.42;1.83;;;;;;;21.19;55.40;101945.84;5110029;28;20035;-71
2023/09/05 07:23:36;;;;;;;2.10;1.90;;;;;;;21.70;55.72;102026.19;5106413;28;20023;-73
2023/09/05 07:26:05;;;;;;;2.50;1.85;;;;;;;21.43;55.48;101983.91;5108445;28;20024;-72
2023/09/05 07:28:30;;;;;;;1.80;1.42;;;;;;;21.33;55.53;101966.94;5110027;28;20028;-72
2023/09/05 07:30:56;;;;;;;1.90;1.63;;;;;;;21.49;55.26;101993.25;5109582;28;20028;-71
2023/09/05 07:33:21;;;;;;;2.88;1.90;;;;;;;21.72;55.49;102026.03;5109878;28;20039;-71
2023/09/05 07:35:46;;;;;;;2.22;1.73;;;;;;;21.64;55.56;102018.72;5108380;28;20048;-70
2023/09/05 07:38:17;;;;;;;1.92;1.70;;;;;;;21.72;55.34;102023.34;5107228;28;20095;-71
2023/09/05 07:40:42;;;;;;;2.20;1.70;;;;;;;21.73;55.55;102035.00;5110000;28;20108;-71
2023/09/05 07:43:08;;;;;;;3.80;1.77;;;;;;;21.46;55.33;101985.47;5112827;28;20024;-71
2023/09/05 07:45:34;;;;;;;2.58;1.70;;;;;;;21.43;55.46;101983.06;5109060;28;20570;-71
2023/09/05 07:47:59;;;;;;;2.15;1.70;;;;;;;21.52;55.42;102000.22;5110537;28;20047;-71
2023/09/05 07:50:24;;;;;;;2.25;1.73;;;;;;;21.58;55.46;102013.97;5110248;28;20080;-71
2023/09/05 07:52:50;;;;;;;1.70;1.60;;;;;;;21.53;55.73;102010.00;5119635;28;20024;-72
2023/09/05 07:55:16;;;;;;;1.88;1.73;;;;;;;21.74;55.46;102025.88;5112264;28;20081;-71
2023/09/05 07:57:41;;;;;;;2.25;1.80;;;;;;;21.66;55.37;102023.97;5111256;28;20066;-70
2023/09/05 08:00:11;;;;;;;2.55;1.75;;;;;;;21.62;55.75;102012.63;5108050;28;20027;-71
2023/09/05 08:02:37;;;;;;;2.22;1.92;;;;;;;21.74;55.59;102034.84;5113592;28;20047;-71
2023/09/05 08:05:06;;;;;;;2.60;1.85;;;;;;;21.59;55.63;102010.25;5111622;28;20031;-71
2023/09/05 08:07:32;;;;;;;1.70;1.50;;;;;;;21.65;55.51;102023.13;5121264;28;20903;-71
2023/09/05 08:09:57;;;;;;;2.22;2.03;;;;;;;21.75;55.63;102041.09;5116250;28;20127;-71
2023/09/05 08:12:22;;;;;;;1.90;1.60;;;;;;;21.55;55.46;101997.19;5112055;28;20050;-71
2023/09/05 08:14:48;;;;;;;2.03;1.80;;;;;;;21.51;55.47;101993.09;5113351;27;20034;-71
2023/09/05 08:17:13;;;;;;;1.77;1.60;;;;;;;21.55;55.67;101986.38;5113542;28;20145;-71
2023/09/05 08:19:38;;;;;;;2.10;1.90;;;;;;;21.23;55.34;101934.53;5111078;28;20026;-71
2023/09/05 08:22:05;;;;;;;2.33;1.95;;;;;;;21.54;55.65;101988.22;5109906;28;20073;-71
2023/09/05 08:24:30;;;;;;;2.13;1.60;;;;;;;21.76;55.34;102018.47;5114555;28;20027;-71
2023/09/05 08:26:56;;;;;;;3.40;1.85;;;;;;;21.76;55.47;102016.59;5116832;28;20054;-71
2023/09/05 08:29:23;;;;;;;3.55;2.00;;;;;;;21.48;55.44;101972.59;5110725;28;20020;-72
2023/09/05 08:31:48;;;;;;;3.40;1.80;;;;;;;21.63;55.75;101998.09;5111911;28;20074;-71
2023/09/05 08:34:14;;;;;;;2.95;1.70;;;;;;;21.71;55.65;102013.53;5108570;27;20448;-72
2023/09/05 08:36:40;;;;;;;2.50;1.80;;;;;;;21.55;55.72;101976.38;5113558;28;20028;-72
2023/09/05 08:39:06;;;;;;;2.72;2.10;;;;;;;21.60;55.68;101989.44;5114469;28;20055;-71
2023/09/05 08:41:31;;;;;;;2.47;1.70;;;;;;;21.57;55.70;101976.22;5108133;28;20028;-72
2023/09/05 08:43:57;;;;;;;2.65;1.70;;;;;;;21.75;55.83;102003.19;5117940;28;20028;-71
2023/09/05 08:46:23;;;;;;;1.90;1.50;;;;;;;21.75;55.66;102003.19;5112033;28;20026;-74
2023/09/05 08:48:49;;;;;;;2.53;1.98;;;;;;;21.48;55.72;101966.34;5106455;28;20024;-72
2023/09/05 08:51:18;;;;;;;3.17;1.55;;;;;;;21.75;55.97;101995.09;5120516;28;20029;-72
2023/09/05 08:53:55;;;;;;;3.53;2.30;;;;;;;21.74;55.67;102005.06;5110949;28;20028;-71
2023/09/05 08:56:21;;;;;;;2.42;1.67;;;;;;;21.43;55.92;101948.75;5112012;28;20035;-74
2023/09/05 08:58:47;;;;;;;2.88;1.95;;;;;;;21.76;55.81;102007.63;5104086;28;20386;-70
2023/09/05 09:01:12;;;;;;;3.90;2.17;;;;;;;21.70;56.07;102000.97;5109591;28;20034;-70
2023/09/05 09:03:37;;;;;;;3.95;2.10;;;;;;;21.68;56.02;101989.47;5112725;28;20507;-70
2023/09/05 09:06:03;;;;;;;2.45;1.80;;;;;;;21.57;55.96;101970.81;5115443;28;20030;-72
2023/09/05 09:08:44;;;;;;;3.95;2.30;;;;;;;21.47;56.23;101957.38;5107068;28;20417;-72
2023/09/05 09:11:10;;;;;;;2.60;1.77;;;;;;;21.70;56.07;101993.69;5116385;28;20024;-72
2023/09/05 09:13:38;;;;;;;3.28;1.52;;;;;;;21.75;56.13;102000.50;5113744;28;20027;-72
2023/09/05 09:16:03;;;;;;;2.58;1.75;;;;;;;21.47;56.15;101960.09;5105713;28;20028;-72
2023/09/05 09:18:32;;;;;;;1.95;1.55;;;;;;;21.61;56.14;101975.72;5118729;28;20032;-72
2023/09/05 09:21:01;;;;;;;2.67;1.67;;;;;;;21.73;56.22;101991.69;5111594;28;20024;-72
2023/09/05 09:23:28;;;;;;;3.60;2.30;;;;;;;21.75;56.18;102000.50;5107738;28;20032;-71
2023/09/05 09:25:54;;;;;;;1.95;1.70;;;;;;;21.57;56.34;101958.13;5103008;28;20054;-72
2023/09/05 09:28:21;;;;;;;2.40;1.45;;;;;;;21.77;56.45;102004.75;5110360;28;20019;-72
2023/09/05 09:30:54;;;;;;;3.10;1.98;;;;;;;21.62;56.44;101985.56;5107394;28;20028;-72
2023/09/05 09:33:21;;;;;;;2.88;2.00;;;;;;;21.81;56.39;101997.16;5113934;28;20089;-72
2023/09/05 09:36:01;;;;;;;2.03;1.60;;;;;;;21.56;56.42;101959.13;5104417;28;20035;-72
2023/09/05 09:38:27;;;;;;;2.50;1.60;;;;;;;21.83;56.46;101998.69;5108102;28;20027;-71
2023/09/05 09:40:52;;;;;;;3.65;1.40;;;;;;;21.63;56.38;101967.47;5105055;28;20039;-72
2023/09/05 09:43:17;;;;;;;2.85;1.60;;;;;;;21.83;56.50;101995.97;5109576;28;20044;-72
2023/09/05 09:45:43;;;;;;;4.15;2.28;;;;;;;21.84;56.86;101994.97;5112802;28;20028;-72
2023/09/05 09:48:09;;;;;;;2.75;1.65;;;;;;;21.56;56.42;101944.75;5110564;28;20028;-71
2023/09/05 09:50:36;;;;;;;2.03;1.58;;;;;;;21.71;56.54;101968.34;5112967;28;20042;-71
2023/09/05 09:53:02;;;;;;;2.03;1.60;;;;;;;21.87;56.75;101993.78;5109913;28;20034;-71
2023/09/05 09:55:31;;;;;;;2.58;1.67;;;;;;;21.67;56.77;101958.03;5110316;28;20027;-72
2023/09/05 09:58:01;;;;;;;3.03;1.73;;;;;;;21.88;56.75;101992.81;5111409;28;20031;-71
2023/09/05 10:00:28;;;;;;;2.67;1.55;;;;;;;21.51;56.74;101939.84;5110494;28;20032;-72
2023/09/05 10:02:54;;;;;;;2.25;2.00;;;;;;;21.90;56.55;101993.47;5105419;28;20024;-71
2023/09/05 10:05:23;;;;;;;3.72;1.88;;;;;;;21.87;56.62;101981.09;5111137;28;20058;-72
2023/09/05 10:07:49;;;;;;;2.55;1.70;;;;;;;21.76;56.73;101959.75;5111677;28;20048;-72
2023/09/05 10:10:15;;;;;;;1.98;1.60;;;;;;;21.91;56.64;101987.03;5110356;28;20102;-72
2023/09/05 10:12:43;;;;;;;2.38;1.88;;;;;;;21.80;56.81;101954.88;5112669;28;20083;-72
2023/09/05 10:15:11;;;;;;;2.30;1.85;;;;;;;21.83;56.46;101957.22;5115084;27;20020;-72
2023/09/05 10:17:37;;;;;;;3.65;2.08;;;;;;;21.89;56.71;101962.00;5109128;28;20028;-72
2023/09/05 10:20:04;;;;;;;2.97;1.98;;;;;;;;;;5115647;28;20035;-72
2023/09/05 10:22:32;;;;;;;3.60;2.20;;;;;;;22.00;56.89;101982.50;5114351;28;20020;-71
2023/09/05 10:25:00;;;;;;;2.90;1.80;;;;;;;22.02;56.82;101985.91;5109920;28;20030;-71
2023/09/05 10:27:25;;;;;;;3.35;1.80;;;;;;;21.87;56.87;101953.19;5118973;28;20031;-72
2023/09/05 10:29:50;;;;;;;2.75;1.70;;;;;;;21.70;56.84;101931.44;5114121;28;20028;-72
2023/09/05 10:32:18;;;;;;;2.15;1.88;;;;;;;21.86;56.71;101948.78;5115199;28;20057;-71
2023/09/05 10:34:47;;;;;;;2.80;1.80;;;;;;;22.07;57.02;101980.84;5115255;28;20027;-72
2023/09/05 10:37:18;;;;;;;2.13;1.70;;;;;;;21.66;56.87;101913.00;5113058;28;20028;-72
2023/09/05 10:39:48;;;;;;;2.38;1.83;;;;;;;21.88;56.57;101942.22;5113329;28;20034;-72
2023/09/05 10:42:14;;;;;;;2.53;1.85;;;;;;;22.11;57.07;101976.81;5122343;28;20024;-71
2023/09/05 10:44:45;;;;;;;2.55;1.90;;;;;;;22.11;56.78;101980.38;5109769;28;20052;-72
2023/09/05 10:47:26;;;;;;;2.78;2.28;;;;;;;22.13;56.93;101977.50;5117557;28;20034;-72
2023/09/05 10:49:59;;;;;;;2.22;1.60;;;;;;;22.15;56.66;101980.91;5124229;28;20543;-72
2023/09/05 10:52:27;;;;;;;3.15;1.88;;;;;;;21.90;56.90;101932.03;5113202;28;20095;-71
2023/09/05 10:54:53;;;;;;;2.55;1.90;;;;;;;22.10;57.07;101962.41;5121890;28;20040;-71
2023/09/05 10:57:38;;;;;;;2.50;1.67;;;;;;;22.18;56.89;101970.59;5112870;28;20440;-71
2023/09/05 11:00:17;;;;;;;3.40;1.80;;;;;;;22.05;56.74;101947.69;5115153;28;20020;-72
2023/09/05 11:02:43;;;;;;;;;;;;;;;22.22;56.96;101971.13;5118560;28;20046;-72
2023/09/05 11:05:12;;;;;;;4.07;2.13;;;;;;;21.99;56.71;101932.06;5121270;28;19994;-72
2023/09/05 11:07:42;;;;;;;4.97;1.90;;;;;;;22.24;57.00;101971.81;5124376;28;20128;-71
2023/09/05 11:10:29;;;;;;;2.97;2.00;;;;;;;21.55;56.82;101857.31;5116801;28;20047;-72
2023/09/05 11:12:54;;;;;;;2.03;1.60;;;;;;;22.23;57.01;101961.97;5110333;28;20035;-71
2023/09/05 11:15:30;;;;;;;1.77;1.67;;;;;;;22.15;56.96;101941.13;5121818;27;20063;-72
2023/09/05 11:18:09;;;;;;;2.08;1.88;;;;;;;22.24;56.95;101949.28;5116342;28;20049;-71
2023/09/05 11:20:42;;;;;;;2.15;1.70;;;;;;;21.82;56.95;101877.03;5120240;28;20024;-72
2023/09/05 11:23:21;;;;;;;2.38;2.00;;;;;;;22.29;57.04;101957.75;5119096;28;20088;-71
2023/09/05 11:25:53;;;;;;;2.22;1.65;;;;;;;22.35;57.06;101967.94;5107480;28;20026;-71